Allentown, New Jersey
Current Conditions -  °F | °C
As of 10:58 PM on Friday 31 Oct 2014 (Local Time) from KWRI Reporting Station
Overcast Overcast  
Wind Chill: 46°   Ceiling: 6000
Heat Index: 49°   Visibility: 10mi
Dew Point: 44°   Wind: 8mph
Humidity: 83%   Direction: 40°NE
Pressure: 29.8"   Gusts: NA
Location:  40.18°N, 74.58°W
Report Text: KWRI 010258Z AUTO 04007KT 10SM BKN060 OVC080 10/07 A2980 RMK AO2 CIG 060 RWY24 SLP095 T00970069 57014 $
Loading
Personal Weather Stations






























Interactive Weather Map
Tropical Storm Tracking
New forecast layout! Learn more

10-Day Weather Forecast

Advertisements
Track Severe Weather on mobile